Globe, Arizona
Current Conditions -  °F | °C
As of 2:35 AM on Wednesday 22 Oct 2014 (Local Time) from KIWA Reporting Station
Clear Clear  
Wind Chill: 61°   Ceiling: Unl
Heat Index: 61°   Visibility: 10mi
Dew Point: 52°   Wind: 6mph
Humidity: 72%   Direction: 130°SE
Pressure: 29.89"   Gusts: NA
Location:  33.4°N, 110.78°W
Report Text: KIWA 220935Z AUTO 13005KT 10SM CLR 16/11 A2989 RMK AO2
Loading
Personal Weather Stations






























Interactive Weather Map
Tropical Storm Tracking
New forecast layout! Learn more

10-Day Weather Forecast

Advertisements
Track Severe Weather on mobile